Time;durP1;ratioP1;P1;durP2;ratioP2;P2;SDS_P1;SDS_P2;PMS_P1;PMS_P2;Temp;Humidity;BMP_temperature;BMP_pressure;BME280_temperature;BME280_humidity;BME280_pressure;Samples;Min_cycle;Max_cycle;Signal;HPM_P1;HPM_P2
2022/02/27 00:01:00;;;;;;;0.00;0.00;;;;;;;5.50;66.06;101113.47;6213748;23;20154;-78
2022/02/27 00:03:25;;;;;;;0.00;0.00;;;;;;;5.55;65.21;101119.09;6190526;23;20099;-77
2022/02/27 00:05:51;;;;;;;0.00;0.00;;;;;;;5.60;65.75;101113.84;6214494;23;20020;-77
2022/02/27 00:08:16;;;;;;;0.00;0.00;;;;;;;5.61;64.96;101099.22;6218511;23;20005;-78
2022/02/27 00:10:42;;;;;;;0.00;0.00;;;;;;;5.63;64.75;101097.13;6216698;23;20005;-78
2022/02/27 00:13:08;;;;;;;0.00;0.00;;;;;;;5.65;64.68;101105.88;6214413;23;20012;-78
2022/02/27 00:15:33;;;;;;;0.00;0.00;;;;;;;5.67;64.83;101108.38;6217358;23;20058;-79
2022/02/27 00:17:59;;;;;;;0.00;0.00;;;;;;;5.67;64.79;101103.78;6216481;23;20000;-77
2022/02/27 00:20:24;;;;;;;0.00;0.00;;;;;;;5.70;63.83;101106.06;6215441;23;20015;-77
2022/02/27 00:22:50;;;;;;;0.00;0.00;;;;;;;5.76;63.84;101107.91;6192257;23;20024;-78
2022/02/27 00:25:15;;;;;;;0.00;0.00;;;;;;;5.77;64.52;101098.72;6215376;23;20084;-78
2022/02/27 00:27:41;;;;;;;0.00;0.00;;;;;;;5.79;63.95;101116.66;6216984;23;20036;-77
2022/02/27 00:30:08;;;;;;;0.00;0.00;;;;;;;5.84;64.41;101103.25;6217076;23;20080;-76
2022/02/27 00:32:36;;;;;;;0.00;0.00;;;;;;;5.86;63.85;101117.47;6217111;23;20094;-75
2022/02/27 00:35:03;;;;;;;0.00;0.00;;;;;;;5.82;63.94;101110.81;6216533;23;20005;-75
2022/02/27 00:37:29;;;;;;;0.00;0.00;;;;;;;5.85;62.75;101132.06;6216282;23;20012;-78
2022/02/27 00:39:54;;;;;;;0.00;0.00;;;;;;;5.86;62.87;101125.59;6221356;23;20317;-77
2022/02/27 00:42:20;;;;;;;0.00;0.00;;;;;;;5.85;63.18;101127.47;6219552;23;20363;-77
2022/02/27 00:44:45;;;;;;;0.00;0.00;;;;;;;5.87;63.37;101129.97;6196562;23;20011;-80
2022/02/27 00:47:11;;;;;;;0.00;0.00;;;;;;;5.81;63.28;101125.41;6226477;23;20016;-79
2022/02/27 00:49:36;;;;;;;0.00;0.00;;;;;;;5.84;62.82;101131.25;6220019;23;20017;-76
2022/02/27 00:52:02;;;;;;;0.00;0.00;;;;;;;5.84;62.69;101127.69;6217256;23;20021;-79
2022/02/27 00:54:28;;;;;;;0.00;0.00;;;;;;;5.84;62.56;101136.69;6216959;23;20004;-79
2022/02/27 00:56:57;;;;;;;0.00;0.00;;;;;;;5.80;62.53;101129.16;6216510;23;20020;-77
2022/02/27 00:59:23;;;;;;;0.00;0.00;;;;;;;5.73;62.39;101124.63;6218302;23;20016;-77
2022/02/27 01:01:48;;;;;;;0.00;0.00;;;;;;;5.70;62.54;101135.09;6216191;23;20370;-79
2022/02/27 01:04:13;;;;;;;0.00;0.00;;;;;;;5.69;62.79;101142.38;6215838;23;20721;-78
2022/02/27 01:06:39;;;;;;;0.00;0.00;;;;;;;5.64;62.99;101127.81;6217203;23;20419;-78
2022/02/27 01:09:05;;;;;;;0.00;0.00;;;;;;;5.64;63.03;101134.06;6217295;23;20045;-78
2022/02/27 01:11:32;;;;;;;0.00;0.00;;;;;;;5.65;63.27;101133.03;6190407;23;20015;-78
2022/02/27 01:13:58;;;;;;;0.00;0.00;;;;;;;5.63;62.94;101132.38;6243242;23;20008;-78
2022/02/27 01:16:24;;;;;;;0.00;0.00;;;;;;;5.60;62.58;101130.09;6216427;23;20066;-78
2022/02/27 01:18:50;;;;;;;0.00;0.00;;;;;;;5.57;62.81;101108.84;6222625;23;20434;-78
2022/02/27 01:21:16;;;;;;;0.00;0.00;;;;;;;5.57;63.43;101130.53;6219163;23;20008;-78
2022/02/27 01:23:46;;;;;;;0.00;0.00;;;;;;;5.57;62.76;101131.38;6221170;23;20008;-77
2022/02/27 01:26:17;;;;;;;0.00;0.00;;;;;;;5.56;63.23;101137.88;6222612;23;20021;-77
2022/02/27 01:28:43;;;;;;;0.00;0.00;;;;;;;5.55;63.17;101132.66;6220141;23;20000;-76
2022/02/27 01:31:08;;;;;;;0.00;0.00;;;;;;;5.59;63.13;101139.28;6221212;23;20004;-78
2022/02/27 01:33:35;;;;;;;0.00;0.00;;;;;;;5.54;62.59;101129.09;6220283;23;20035;-77
2022/02/27 01:36:00;;;;;;;0.00;0.00;;;;;;;5.55;63.17;101127.22;6218906;23;20059;-79
2022/02/27 01:38:26;;;;;;;0.00;0.00;;;;;;;5.49;62.99;101128.06;6220442;23;20060;-77
2022/02/27 01:40:52;;;;;;;0.00;0.00;;;;;;;5.50;62.94;101135.16;6218903;23;20008;-76
2022/02/27 01:43:17;;;;;;;0.00;0.00;;;;;;;5.44;62.80;101125.19;6220476;23;20004;-74
2022/02/27 01:45:43;;;;;;;0.00;0.00;;;;;;;5.38;63.79;101127.69;6221385;23;20001;-76
2022/02/27 01:48:08;;;;;;;0.00;0.00;;;;;;;5.38;64.16;101130.41;6219657;23;20004;-75
2022/02/27 01:50:34;;;;;;;0.00;0.00;;;;;;;5.36;63.53;101124.38;6220929;22;20009;-75
2022/02/27 01:53:00;;;;;;;0.00;0.00;;;;;;;5.34;63.68;101126.44;6219301;23;20012;-77
2022/02/27 01:55:26;;;;;;;0.00;0.00;;;;;;;5.31;63.92;101128.75;6221410;23;20020;-76
2022/02/27 01:57:52;;;;;;;0.00;0.00;;;;;;;5.28;64.01;101132.72;6220044;23;20498;-76
2022/02/27 02:00:20;;;;;;;0.00;0.00;;;;;;;5.27;63.72;101120.25;6220816;23;20004;-75
2022/02/27 02:02:46;;;;;;;0.00;0.00;;;;;;;5.24;64.25;101131.47;6222782;23;20055;-76
2022/02/27 02:05:16;;;;;;;0.00;0.00;;;;;;;5.21;64.69;101121.06;6226073;23;20032;-78
2022/02/27 02:07:42;;;;;;;0.00;0.00;;;;;;;5.22;64.61;101122.75;6225992;23;20108;-78
2022/02/27 02:10:15;;;;;;;0.00;0.00;;;;;;;5.19;64.45;101113.16;6220016;23;20068;-77
2022/02/27 02:12:41;;;;;;;0.00;0.00;;;;;;;5.18;64.05;101107.94;6218906;23;20004;-76
2022/02/27 02:15:07;;;;;;;0.00;0.00;;;;;;;5.16;64.95;101108.16;6216437;23;20001;-75
2022/02/27 02:17:35;;;;;;;0.00;0.00;;;;;;;5.14;64.90;101101.28;6217816;23;20009;-75
2022/02/27 02:20:00;;;;;;;0.00;0.00;;;;;;;5.06;64.24;101086.09;6215409;23;20454;-76
2022/02/27 02:22:26;;;;;;;0.00;0.00;;;;;;;5.11;64.71;101096.28;6218007;23;20012;-75
2022/02/27 02:24:52;;;;;;;0.00;0.00;;;;;;;5.09;64.99;101090.25;6216494;23;20430;-74
2022/02/27 02:27:17;;;;;;;0.00;0.00;;;;;;;5.07;64.43;101093.19;6219600;23;20032;-74
2022/02/27 02:29:43;;;;;;;0.00;0.00;;;;;;;5.03;64.65;101081.91;6217626;23;20051;-75
2022/02/27 02:32:09;;;;;;;0.00;0.00;;;;;;;5.03;64.94;101095.47;6215019;23;20109;-73
2022/02/27 02:34:34;;;;;;;0.00;0.00;;;;;;;5.01;65.20;101084.00;6218447;23;20051;-74
2022/02/27 02:37:10;;;;;;;0.00;0.00;;;;;;;4.98;64.85;101079.03;6217817;23;20019;-74
2022/02/27 02:39:46;;;;;;;0.00;0.00;;;;;;;4.94;65.87;101077.78;6216629;23;20059;-75
2022/02/27 02:42:14;;;;;;;0.00;0.00;;;;;;;4.97;65.46;101080.06;6215779;23;20008;-74
2022/02/27 02:44:39;;;;;;;0.00;0.00;;;;;;;4.89;65.69;101064.00;6216614;23;20682;-75
2022/02/27 02:47:08;;;;;;;0.00;0.00;;;;;;;4.85;64.84;101060.09;6215967;23;20004;-74
2022/02/27 02:49:33;;;;;;;0.00;0.00;;;;;;;4.85;65.74;101063.63;6216721;23;20008;-74
2022/02/27 02:51:59;;;;;;;0.00;0.00;;;;;;;4.82;65.41;101057.78;6190606;23;20078;-74
2022/02/27 02:54:24;;;;;;;0.00;0.00;;;;;;;4.81;65.94;101061.56;6242918;23;20012;-76
2022/02/27 02:56:53;;;;;;;0.00;0.00;;;;;;;4.79;65.65;101055.50;6216986;23;20008;-72
2022/02/27 02:59:23;;;;;;;0.00;0.00;;;;;;;4.77;66.24;101049.47;6218388;23;20001;-75
2022/02/27 03:01:51;;;;;;;0.00;0.00;;;;;;;4.76;66.52;101055.91;6215007;23;20001;-75
2022/02/27 03:04:17;;;;;;;0.00;0.00;;;;;;;4.72;65.89;101050.94;6216019;23;20066;-74
2022/02/27 03:06:42;;;;;;;0.00;0.00;;;;;;;4.70;66.18;101044.91;6216540;23;20059;-76
2022/02/27 03:09:08;;;;;;;0.00;0.00;;;;;;;4.66;66.23;101038.25;6215964;23;20424;-76
2022/02/27 03:11:33;;;;;;;0.00;0.00;;;;;;;4.64;66.40;101040.31;6215888;23;20032;-75
2022/02/27 03:14:01;;;;;;;0.00;0.00;;;;;;;4.60;65.99;101039.09;6218186;23;20338;-75
2022/02/27 03:16:27;;;;;;;0.00;0.00;;;;;;;4.56;66.40;101032.44;6215632;23;20013;-75
2022/02/27 03:18:52;;;;;;;0.00;0.00;;;;;;;4.57;66.57;101033.25;6218984;23;20088;-76
2022/02/27 03:21:18;;;;;;;0.00;0.00;;;;;;;4.52;66.41;101029.28;6191797;23;20423;-75
2022/02/27 03:23:45;;;;;;;0.00;0.00;;;;;;;4.51;66.58;101029.50;6217915;23;20035;-76
2022/02/27 03:26:14;;;;;;;0.00;0.00;;;;;;;4.47;66.90;101025.56;6215958;23;20434;-74
2022/02/27 03:28:39;;;;;;;0.00;0.00;;;;;;;4.48;67.45;101024.50;6216318;23;20008;-77
2022/02/27 03:31:04;;;;;;;0.00;0.00;;;;;;;4.45;66.81;101022.22;6216839;23;20062;-76
2022/02/27 03:33:30;;;;;;;0.00;0.00;;;;;;;4.45;67.28;101019.53;6218258;23;20000;-75
2022/02/27 03:35:55;;;;;;;0.00;0.00;;;;;;;4.44;67.24;101017.84;6218266;23;20031;-75
2022/02/27 03:38:21;;;;;;;0.00;0.00;;;;;;;4.40;67.36;101011.22;6217219;23;21125;-75
2022/02/27 03:40:47;;;;;;;0.00;0.00;;;;;;;4.41;67.74;101023.69;6192677;23;20013;-76
2022/02/27 03:43:17;;;;;;;0.00;0.00;;;;;;;4.38;67.58;101006.00;6189863;23;20024;-75
2022/02/27 03:45:43;;;;;;;0.00;0.00;;;;;;;4.34;67.60;100999.34;6217565;23;20005;-75
2022/02/27 03:48:08;;;;;;;0.00;0.00;;;;;;;4.32;67.37;100991.44;6217434;23;20014;-74
2022/02/27 03:50:34;;;;;;;0.00;0.00;;;;;;;4.32;67.41;100999.56;6214031;23;20031;-75
2022/02/27 03:52:59;;;;;;;0.00;0.00;;;;;;;4.32;67.86;100999.56;6218686;23;20009;-76
2022/02/27 03:55:28;;;;;;;0.00;0.00;;;;;;;4.31;67.73;100991.66;6215078;23;20005;-76
2022/02/27 03:57:56;;;;;;;0.00;0.00;;;;;;;4.32;67.61;100999.56;6217655;23;20056;-78
2022/02/27 04:00:21;;;;;;;0.00;0.00;;;;;;;4.25;67.65;100987.91;6218030;23;20012;-76
2022/02/27 04:02:47;;;;;;;0.00;0.00;;;;;;;4.27;67.69;100995.81;6217915;23;20100;-76
2022/02/27 04:05:15;;;;;;;0.00;0.00;;;;;;;4.19;67.63;100997.69;6217902;23;20027;-77
2022/02/27 04:07:43;;;;;;;0.00;0.00;;;;;;;4.20;67.27;100990.38;6219022;23;20111;-78
2022/02/27 04:10:09;;;;;;;0.00;0.00;;;;;;;4.22;67.59;101007.28;6194680;23;20044;-76
2022/02/27 04:12:41;;;;;;;0.00;0.00;;;;;;;4.23;67.72;100999.97;6219288;23;20001;-76
2022/02/27 04:15:15;;;;;;;0.00;0.00;;;;;;;4.26;67.82;101004.97;6217591;23;20007;-73
2022/02/27 04:17:43;;;;;;;0.00;0.00;;;;;;;4.19;67.96;100994.97;6215126;23;19997;-73
2022/02/27 04:20:09;;;;;;;0.00;0.00;;;;;;;4.26;67.65;101004.97;6190350;23;20411;-73
2022/02/27 04:22:38;;;;;;;0.00;0.00;;;;;;;4.17;67.63;100988.94;6214518;23;20008;-73
2022/02/27 04:25:04;;;;;;;0.00;0.00;;;;;;;4.22;68.26;100993.75;6214444;23;20035;-73
2022/02/27 04:27:33;;;;;;;0.00;0.00;;;;;;;4.15;67.52;100979.38;6216965;23;20071;-73
2022/02/27 04:30:01;;;;;;;0.00;0.00;;;;;;;4.19;68.42;100988.72;6214674;23;20091;-72
2022/02/27 04:32:27;;;;;;;0.00;0.00;;;;;;;4.13;68.18;100970.63;6190081;23;20062;-72
2022/02/27 04:34:52;;;;;;;0.00;0.00;;;;;;;4.22;67.98;100987.47;6216593;23;20028;-73
2022/02/27 04:37:18;;;;;;;0.00;0.00;;;;;;;4.21;68.37;100981.22;6214414;23;20017;-72
2022/02/27 04:39:44;;;;;;;0.00;0.00;;;;;;;4.22;68.51;100977.50;6217350;23;20013;-73
2022/02/27 04:42:09;;;;;;;0.00;0.00;;;;;;;4.22;68.83;100977.50;6219673;23;20009;-72
2022/02/27 04:44:34;;;;;;;0.00;0.00;;;;;;;4.25;68.91;100973.50;6194368;23;20001;-74
2022/02/27 04:47:00;;;;;;;0.00;0.00;;;;;;;4.23;68.28;100979.13;6218208;23;20008;-73
2022/02/27 04:49:28;;;;;;;0.00;0.00;;;;;;;4.21;68.57;100970.41;6190994;23;20008;-73
2022/02/27 04:51:53;;;;;;;0.00;0.00;;;;;;;4.22;69.03;100966.66;6218201;23;20021;-73
2022/02/27 04:54:20;;;;;;;0.00;0.00;;;;;;;4.24;69.09;100964.56;6216810;23;20009;-72
2022/02/27 04:56:45;;;;;;;0.00;0.00;;;;;;;4.24;68.93;100964.56;6216928;23;20038;-73
2022/02/27 04:59:10;;;;;;;0.00;0.00;;;;;;;4.26;68.89;100970.59;6215572;23;20056;-73
2022/02/27 05:01:39;;;;;;;0.00;0.00;;;;;;;4.24;68.83;100974.56;6219480;23;20011;-74
2022/02/27 05:04:04;;;;;;;0.00;0.00;;;;;;;4.24;68.27;100969.16;6190972;23;20018;-74
2022/02/27 05:06:30;;;;;;;0.00;0.00;;;;;;;4.18;68.82;100960.81;6217503;23;20463;-73
2022/02/27 05:08:55;;;;;;;0.00;0.00;;;;;;;4.20;68.34;100974.16;6188798;23;20017;-74
2022/02/27 05:11:21;;;;;;;0.00;0.00;;;;;;;4.21;68.57;100975.81;6214486;23;20017;-73
2022/02/27 05:13:46;;;;;;;0.00;0.00;;;;;;;4.18;68.88;100954.59;6215354;23;20015;-73
2022/02/27 05:16:12;;;;;;;0.00;0.00;;;;;;;4.18;69.03;100965.41;6212227;23;20050;-73
2022/02/27 05:18:37;;;;;;;0.00;0.00;;;;;;;4.21;68.79;100958.75;6216025;23;20001;-73
2022/02/27 05:21:03;;;;;;;0.00;0.00;;;;;;;4.19;68.69;100967.91;6211792;23;20013;-73
2022/02/27 05:23:28;;;;;;;0.00;0.00;;;;;;;4.20;68.70;100957.91;6214871;23;20004;-75
2022/02/27 05:25:58;;;;;;;0.00;0.00;;;;;;;4.18;68.83;100954.59;6211727;23;20011;-73
2022/02/27 05:28:24;;;;;;;0.00;0.00;;;;;;;4.17;69.22;100952.91;6188236;23;20480;-74
2022/02/27 05:30:52;;;;;;;0.00;0.00;;;;;;;4.17;69.37;100958.31;6215263;23;20012;-74
2022/02/27 05:33:20;;;;;;;0.00;0.00;;;;;;;4.16;69.21;100951.25;6216228;23;20008;-74
2022/02/27 05:35:46;;;;;;;0.00;0.00;;;;;;;4.15;69.23;100945.00;6219715;23;20012;-73
2022/02/27 05:38:12;;;;;;;0.00;0.00;;;;;;;4.09;69.17;100931.47;6221815;23;20012;-73
2022/02/27 05:40:37;;;;;;;0.00;0.00;;;;;;;4.11;69.34;100948.34;6222563;23;20019;-73
2022/02/27 05:43:03;;;;;;;0.00;0.00;;;;;;;4.08;68.84;100951.47;6222453;23;19996;-75
2022/02/27 05:45:28;;;;;;;0.00;0.00;;;;;;;4.04;69.25;100947.53;6228569;23;20008;-74
2022/02/27 05:47:54;;;;;;;0.00;0.00;;;;;;;4.00;68.97;100947.94;6229506;23;20004;-73
2022/02/27 05:50:20;;;;;;;3.63;3.30;;;;;;;3.95;69.21;100945.03;6217061;23;20450;-76
2022/02/27 05:52:45;;;;;;;0.00;0.00;;;;;;;3.91;69.12;100943.78;6191803;23;20051;-72
2022/02/27 05:55:11;;;;;;;0.00;0.00;;;;;;;3.89;69.56;100940.44;6215723;23;20011;-73
2022/02/27 05:57:38;;;;;;;0.00;0.00;;;;;;;3.88;69.38;100943.38;6191695;23;20008;-73
2022/02/27 06:00:07;;;;;;;0.00;0.00;;;;;;;3.84;69.26;100954.63;6215103;23;20016;-74
2022/02/27 06:02:32;;;;;;;0.00;0.00;;;;;;;3.79;69.34;100937.34;6216495;23;20001;-75
2022/02/27 06:04:58;;;;;;;0.00;0.00;;;;;;;3.81;69.44;100935.25;6212537;23;20004;-75
2022/02/27 06:07:23;;;;;;;0.00;0.00;;;;;;;3.75;69.80;100934.22;6213697;23;20064;-74
2022/02/27 06:09:49;;;;;;;0.00;0.00;;;;;;;3.74;70.00;100942.53;6187551;23;20027;-73
2022/02/27 06:12:33;;;;;;;;;;;;;;;;;;;;;
2022/02/27 06:15:08;;;;;;;0.00;0.00;;;;;;;3.61;69.84;100944.19;6215170;23;20072;-75
2022/02/27 06:17:33;;;;;;;0.00;0.00;;;;;;;3.58;69.95;100939.22;6188154;23;20005;-74
2022/02/27 06:20:01;;;;;;;0.00;0.00;;;;;;;3.64;70.00;100965.41;6215280;23;20001;-73
2022/02/27 06:22:28;;;;;;;0.00;0.00;;;;;;;3.59;70.03;100950.84;6215257;23;20001;-73
2022/02/27 06:32:32;;;;;;;0.00;0.00;;;;;;;3.53;70.40;100957.91;6214002;23;20066;-77
2022/02/27 06:35:08;;;;;;;0.00;0.00;;;;;;;3.39;70.64;100934.59;6215303;23;20016;-75
2022/02/27 06:37:33;;;;;;;;;;;;;;;3.48;70.65;100957.72;6217238;23;20016;-75
2022/02/27 06:40:18;;;;;;;0.00;0.00;;;;;;;3.41;70.59;100951.47;6215276;23;19907;-76
2022/02/27 06:43:32;;;;;;;0.00;0.00;;;;;;;3.45;70.83;100958.13;6219571;23;20449;-76
2022/02/27 06:46:03;;;;;;;0.00;0.00;;;;;;;3.43;70.90;100952.06;6039690;23;20051;-76
2022/02/27 06:48:29;;;;;;;0.00;0.00;;;;;;;3.39;71.02;100934.59;6045333;23;20023;-77
2022/02/27 06:50:55;;;;;;;0.00;0.00;;;;;;;3.36;71.21;100935.84;6016083;23;20131;-75
2022/02/27 06:56:48;;;;;;;0.00;0.00;;;;;;;3.44;71.55;100941.06;6059372;23;20008;-77
2022/02/27 06:59:17;;;;;;;0.00;0.00;;;;;;;3.41;71.62;100929.81;6159256;23;19997;-75
2022/02/27 07:02:08;;;;;;;0.00;0.00;;;;;;;3.46;71.48;100949.81;6159443;23;20020;-74
2022/02/27 07:40:23;;;;;;;0.00;0.00;;;;;;;4.23;73.31;100945.81;5819876;24;20014;-75
2022/02/27 07:50:42;;;;;;;0.00;0.00;;;;;;;4.54;73.60;100931.56;5796982;24;20015;-78
2022/02/27 08:11:32;;;;;;;0.00;0.00;;;;;;;5.62;70.11;100920.97;5792004;24;20026;-76
2022/02/27 08:35:20;;;;;;;;;;;;;;;;;;;;;
2022/02/27 08:38:22;;;;;;;;;;;;;;;;;;;;;
2022/02/27 08:41:04;;;;;;;;;;;;;;;;;;;;;
2022/02/27 08:43:42;;;;;;;;;;;;;;;;;;;;;
2022/02/27 08:46:28;;;;;;;0.00;0.00;;;;;;;10.43;61.12;100928.91;6140430;23;20085;-75
2022/02/27 08:48:56;;;;;;;;;;;;;;;11.11;58.93;100956.03;6191303;23;20026;-74
2022/02/27 08:51:21;;;;;;;0.00;0.00;;;;;;;11.65;57.42;100965.31;6198773;22;20289;-75
2022/02/27 08:56:56;;;;;;;;;;;;;;;12.24;53.80;100961.72;6218408;23;20072;-74
2022/02/27 08:59:38;;;;;;;;;;;;;;;;;;;;;
2022/02/27 09:02:06;;;;;;;0.00;0.00;;;;;;;12.58;51.97;100961.34;6213711;23;20083;-73
2022/02/27 09:04:34;;;;;;;0.00;0.00;;;;;;;12.79;51.68;100961.44;6192040;23;20017;-75
2022/02/27 09:07:00;;;;;;;0.00;0.00;;;;;;;13.04;50.48;100975.28;6220180;23;20004;-75
2022/02/27 09:09:25;;;;;;;0.22;0.22;;;;;;;13.30;49.35;100977.28;6221258;23;20016;-73
2022/02/27 09:11:52;;;;;;;0.00;0.00;;;;;;;13.49;48.99;100985.88;6219323;23;20015;-73
2022/02/27 09:14:17;;;;;;;0.00;0.00;;;;;;;13.82;49.34;100961.72;6220593;23;20008;-77
2022/02/27 09:16:43;;;;;;;0.00;0.00;;;;;;;14.47;48.63;100982.00;6220368;23;20031;-75
2022/02/27 09:19:08;;;;;;;0.00;0.00;;;;;;;14.78;47.09;100972.88;6195509;23;20331;-75
2022/02/27 09:21:34;;;;;;;0.00;0.00;;;;;;;14.94;46.21;100976.41;6218917;23;20011;-75
2022/02/27 09:24:02;;;;;;;0.00;0.00;;;;;;;15.21;46.06;100978.72;6220683;23;20605;-74
2022/02/27 09:26:27;;;;;;;0.00;0.00;;;;;;;15.73;46.26;100968.19;6216794;23;20013;-73
2022/02/27 09:28:53;;;;;;;0.00;0.00;;;;;;;16.04;44.66;100970.72;6220982;23;20005;-76
2022/02/27 09:31:19;;;;;;;0.00;0.00;;;;;;;16.10;43.18;100997.16;6215913;23;20012;-76
2022/02/27 09:33:47;;;;;;;0.00;0.00;;;;;;;16.19;42.47;100991.84;6216349;23;20008;-76
2022/02/27 09:36:13;;;;;;;0.00;0.00;;;;;;;15.99;42.12;100995.59;6216149;23;20051;-76
2022/02/27 09:38:44;;;;;;;0.00;0.00;;;;;;;15.63;41.78;100999.41;6215234;23;20004;-75
2022/02/27 09:41:21;;;;;;;;;;;;;;;;;;;;;
2022/02/27 09:43:53;;;;;;;0.00;0.00;;;;;;;15.15;41.92;100994.44;6216791;23;20079;-74
2022/02/27 09:46:21;;;;;;;0.00;0.00;;;;;;;15.44;42.80;101007.53;6219381;23;20005;-73
2022/02/27 09:48:47;;;;;;;0.00;0.00;;;;;;;15.72;42.50;100996.88;6217261;23;20016;-75
2022/02/27 09:51:14;;;;;;;0.00;0.00;;;;;;;15.71;41.75;100996.06;6216641;23;20052;-75
2022/02/27 09:53:39;;;;;;;0.00;0.00;;;;;;;15.66;41.41;101006.28;6216943;23;20628;-72
2022/02/27 09:56:08;;;;;;;0.00;0.00;;;;;;;14.89;41.13;100998.44;6216928;23;20000;-73
2022/02/27 09:59:15;;;;;;;0.00;0.00;;;;;;;14.09;41.92;101006.25;6216402;23;20000;-74
2022/02/27 10:05:24;;;;;;;0.00;0.00;;;;;;;15.32;42.91;101021.66;6155586;23;20073;-75
2022/02/27 10:08:25;;;;;;;0.00;0.00;;;;;;;15.47;41.14;101012.47;6154609;23;20005;-75
2022/02/27 10:11:44;;;;;;;0.00;0.00;;;;;;;15.74;40.97;101016.72;6156948;23;20385;-75
2022/02/27 10:14:19;;;;;;;;;;;;;;;;;;;;;
2022/02/27 10:17:12;;;;;;;0.00;0.00;;;;;;;16.43;39.83;101016.72;6217993;23;20076;-74
2022/02/27 10:19:50;;;;;;;0.20;0.20;;;;;;;16.93;39.86;100986.91;6214763;23;20008;-73
2022/02/27 10:22:15;;;;;;;0.00;0.00;;;;;;;17.98;39.50;100998.19;6215754;23;20309;-77
2022/02/27 10:24:48;;;;;;;0.00;0.00;;;;;;;18.79;36.72;101006.13;6214482;23;20015;-75
2022/02/27 10:27:23;;;;;;;;;;;;;;;;;;;;;
2022/02/27 10:29:49;;;;;;;0.00;0.00;;;;;;;18.31;36.01;101007.28;6215824;23;20103;-76
2022/02/27 10:32:14;;;;;;;0.00;0.00;;;;;;;18.23;36.58;101005.22;6214934;23;20012;-77
2022/02/27 10:34:40;;;;;;;0.00;0.00;;;;;;;18.39;35.55;101000.25;6215688;23;20000;-77
2022/02/27 10:37:08;;;;;;;0.00;0.00;;;;;;;18.29;34.54;101034.47;6191992;23;20058;-79
2022/02/27 10:39:43;;;;;;;0.00;0.00;;;;;;;17.48;34.58;101007.78;6242054;23;20012;-78
2022/02/27 10:42:15;;;;;;;0.00;0.00;;;;;;;17.15;36.47;101010.41;6216436;23;20584;-79
2022/02/27 10:45:01;;;;;;;0.00;0.00;;;;;;;18.13;37.95;101028.38;6211549;23;20009;-78
2022/02/27 10:47:32;;;;;;;0.00;0.00;;;;;;;19.14;34.38;101031.50;6218780;23;20379;-74
2022/02/27 10:50:00;;;;;;;0.00;0.00;;;;;;;19.75;33.64;101043.19;6213230;23;20062;-76
2022/02/27 10:52:28;;;;;;;0.00;0.00;;;;;;;20.22;32.73;101043.75;6214168;23;20091;-74
2022/02/27 10:55:07;;;;;;;0.10;0.10;;;;;;;20.49;31.55;101033.63;6214470;23;20035;-74
2022/02/27 10:57:36;;;;;;;0.00;0.00;;;;;;;20.90;31.34;101037.28;6217211;23;20065;-77
2022/02/27 11:00:20;;;;;;;0.00;0.00;;;;;;;21.36;31.28;101049.84;6216895;23;20008;-74
2022/02/27 11:02:48;;;;;;;0.00;0.00;;;;;;;21.65;31.10;101045.63;6216999;23;20079;-76
2022/02/27 11:05:18;;;;;;;0.00;0.00;;;;;;;22.08;30.50;101047.59;6215526;23;20016;-75
2022/02/27 11:07:56;;;;;;;0.00;0.00;;;;;;;22.48;30.37;101049.38;6216230;23;20004;-76
2022/02/27 11:10:31;;;;;;;0.43;0.43;;;;;;;23.48;29.75;101049.06;6216059;23;20099;-73
2022/02/27 11:12:58;;;;;;;0.00;0.00;;;;;;;24.05;28.62;101059.66;6216116;23;20388;-74
2022/02/27 11:15:24;;;;;;;0.00;0.00;;;;;;;24.40;27.16;101050.13;6217628;23;20028;-73
2022/02/27 11:17:55;;;;;;;0.00;0.00;;;;;;;24.54;27.08;101038.63;6213179;23;20015;-74
2022/02/27 11:20:22;;;;;;;0.00;0.00;;;;;;;24.71;26.82;101035.66;6213967;23;20062;-74
2022/02/27 11:22:51;;;;;;;0.00;0.00;;;;;;;24.82;25.70;101044.38;6214415;23;20012;-74
2022/02/27 11:25:18;;;;;;;0.00;0.00;;;;;;;25.08;25.82;101037.66;6190551;23;20095;-72
2022/02/27 11:27:54;;;;;;;0.00;0.00;;;;;;;25.59;25.82;101045.66;6215738;23;20070;-78
2022/02/27 11:30:29;;;;;;;0.00;0.00;;;;;;;25.81;24.71;101060.31;6213444;23;20439;-72
2022/02/27 11:32:58;;;;;;;0.00;0.00;;;;;;;25.60;24.00;101050.91;6213299;23;20004;-72
2022/02/27 11:35:38;;;;;;;0.00;0.00;;;;;;;25.84;24.51;101031.59;6212653;23;20007;-72
2022/02/27 11:38:09;;;;;;;0.00;0.00;;;;;;;26.58;24.81;101022.81;6212070;23;20025;-72
2022/02/27 11:40:45;;;;;;;0.00;0.00;;;;;;;26.98;23.52;101025.47;6214672;23;20015;-74
2022/02/27 11:43:16;;;;;;;0.00;0.00;;;;;;;27.52;24.13;101026.72;6213433;23;20009;-73
2022/02/27 11:45:42;;;;;;;0.00;0.00;;;;;;;28.04;23.38;101033.03;6213021;23;20013;-73
2022/02/27 11:48:11;;;;;;;0.00;0.00;;;;;;;28.19;22.22;101036.94;6215576;23;20008;-70
2022/02/27 11:50:43;;;;;;;0.00;0.00;;;;;;;28.02;22.15;101028.97;6212374;23;20043;-73
2022/02/27 11:53:20;;;;;;;0.00;0.00;;;;;;;28.26;21.62;101041.88;6215147;23;20023;-73
2022/02/27 11:55:46;;;;;;;0.00;0.00;;;;;;;28.29;21.65;101032.72;6214290;23;20323;-73
2022/02/27 11:58:19;;;;;;;0.00;0.00;;;;;;;28.53;22.17;101030.72;6213298;23;20095;-72
2022/02/27 12:00:45;;;;;;;0.00;0.00;;;;;;;29.05;21.76;101029.19;6212772;23;20079;-73
2022/02/27 12:03:29;;;;;;;0.00;0.00;;;;;;;29.70;21.77;101027.34;6208668;23;20039;-73
2022/02/27 12:05:55;;;;;;;0.22;0.22;;;;;;;29.97;20.94;101030.09;6212555;23;20020;-73
2022/02/27 12:08:51;;;;;;;0.00;0.00;;;;;;;29.86;19.86;101029.16;6212532;23;20008;-72
2022/02/27 12:11:33;;;;;;;0.00;0.00;;;;;;;29.75;20.37;101018.53;6211544;23;20071;-73
2022/02/27 12:14:04;;;;;;;0.00;0.00;;;;;;;29.57;20.17;101014.66;6213980;23;20461;-73
2022/02/27 12:16:42;;;;;;;0.00;0.00;;;;;;;29.68;19.91;101015.63;6210947;23;20301;-72
2022/02/27 12:19:24;;;;;;;0.03;0.03;;;;;;;30.03;19.48;101006.00;6215280;23;20012;-74
2022/02/27 12:21:52;;;;;;;0.47;0.47;;;;;;;30.11;18.97;101016.16;6214530;23;20007;-74
2022/02/27 12:24:27;;;;;;;0.00;0.00;;;;;;;29.97;18.40;101013.19;6212769;23;20371;-72
2022/02/27 12:27:00;;;;;;;0.00;0.00;;;;;;;29.76;18.96;101008.88;6214887;23;20071;-72
2022/02/27 12:29:38;;;;;;;0.03;0.00;;;;;;;29.39;19.03;100998.34;6215003;23;20031;-72
2022/02/27 12:32:08;;;;;;;0.00;0.00;;;;;;;29.71;19.10;100989.50;6215136;23;20008;-73
2022/02/27 12:34:35;;;;;;;0.00;0.00;;;;;;;29.93;19.33;100995.41;6214418;23;20020;-74
2022/02/27 12:37:05;;;;;;;0.00;0.00;;;;;;;29.99;19.08;100993.06;6214791;23;20097;-71
2022/02/27 12:39:34;;;;;;;0.00;0.00;;;;;;;29.93;19.12;100979.31;6215713;23;20008;-74
2022/02/27 12:42:00;;;;;;;0.00;0.00;;;;;;;30.06;19.27;100965.75;6214630;23;20008;-72
2022/02/27 12:44:30;;;;;;;0.00;0.00;;;;;;;30.09;19.20;100964.97;6215816;23;20005;-72
2022/02/27 12:46:56;;;;;;;0.00;0.00;;;;;;;29.89;19.12;100960.72;6213842;23;20060;-71
2022/02/27 12:52:19;;;;;;;0.43;0.43;;;;;;;29.59;19.32;100961.56;6216178;23;20085;-74
2022/02/27 12:54:46;;;;;;;0.00;0.00;;;;;;;29.71;19.40;100958.50;6214906;23;20036;-73
2022/02/27 12:57:15;;;;;;;0.00;0.00;;;;;;;29.93;18.86;100961.59;6214089;23;20088;-74
2022/02/27 12:59:42;;;;;;;0.00;0.00;;;;;;;29.80;18.77;100968.66;6211855;23;20012;-72
2022/02/27 13:02:14;;;;;;;0.00;0.00;;;;;;;29.80;19.42;100968.66;6214322;23;20004;-72
2022/02/27 13:04:40;;;;;;;0.00;0.00;;;;;;;29.94;19.00;100966.84;6214762;23;20008;-73
2022/02/27 13:07:08;;;;;;;0.00;0.00;;;;;;;30.15;19.19;100962.59;6214168;23;20438;-71
2022/02/27 13:09:38;;;;;;;0.00;0.00;;;;;;;29.98;18.57;100966.88;6213864;23;20001;-73
2022/02/27 13:12:17;;;;;;;0.00;0.00;;;;;;;29.93;18.60;100959.59;6216875;23;20001;-73
2022/02/27 13:14:48;;;;;;;0.00;0.00;;;;;;;29.88;18.80;100970.41;6215077;23;20008;-72
2022/02/27 13:17:22;;;;;;;0.00;0.00;;;;;;;29.51;18.32;100957.03;6214946;23;20000;-72
2022/02/27 13:19:50;;;;;;;0.00;0.00;;;;;;;29.20;18.79;100975.91;6215707;23;20000;-73
2022/02/27 13:22:26;;;;;;;0.00;0.00;;;;;;;29.03;19.08;100977.28;6216857;23;20012;-74
2022/02/27 13:24:54;;;;;;;0.00;0.00;;;;;;;28.89;18.95;100966.63;6214902;23;20036;-73
2022/02/27 13:27:25;;;;;;;1.00;1.00;;;;;;;28.95;19.15;100969.94;6217527;23;20382;-72
2022/02/27 13:30:07;;;;;;;0.00;0.00;;;;;;;29.15;19.34;100967.81;6214783;23;20028;-72
2022/02/27 13:32:38;;;;;;;0.00;0.00;;;;;;;29.33;19.78;100963.25;6214328;23;20009;-72
2022/02/27 13:35:12;;;;;;;0.00;0.00;;;;;;;29.46;19.22;100982.75;6216329;23;20008;-73